createdAt,value
2023-01-06T00:00:25.110Z,0.00
2023-01-06T00:05:24.973Z,0.00
2023-01-06T00:10:24.955Z,0.00
2023-01-06T00:15:24.799Z,0.00
2023-01-06T00:20:25.093Z,0.00
2023-01-06T00:25:24.712Z,0.00
2023-01-06T00:30:24.656Z,0.00
2023-01-06T00:35:24.569Z,0.00
2023-01-06T00:40:24.496Z,0.00
2023-01-06T00:45:24.435Z,0.00
2023-01-06T00:50:24.388Z,0.00
2023-01-06T00:55:24.370Z,0.00
2023-01-06T01:00:24.262Z,0.00
2023-01-06T01:05:44.566Z,0.00
2023-01-06T01:10:36.981Z,0.00
2023-01-06T01:15:36.944Z,0.00
2023-01-06T01:20:36.851Z,0.00
2023-01-06T01:25:36.784Z,0.00
2023-01-06T01:30:36.732Z,0.00
2023-01-06T01:35:36.644Z,0.00
2023-01-06T01:40:36.575Z,0.00
2023-01-06T01:45:36.531Z,0.00
2023-01-06T01:50:36.445Z,0.00
2023-01-06T01:55:36.435Z,0.00
2023-01-06T02:00:36.299Z,0.00
2023-01-06T02:05:36.255Z,0.00
2023-01-06T02:10:36.168Z,0.00
2023-01-06T02:15:36.128Z,0.00
2023-01-06T02:20:36.022Z,0.00
2023-01-06T02:25:35.985Z,0.00
2023-01-06T02:30:35.898Z,0.00
2023-01-06T02:35:35.888Z,0.00
2023-01-06T02:40:35.769Z,0.00
2023-01-06T02:45:35.706Z,0.00
2023-01-06T02:50:35.624Z,0.00
2023-01-06T02:55:35.582Z,0.00
2023-01-06T03:00:35.491Z,0.00
2023-01-06T03:05:35.449Z,0.00
2023-01-06T03:10:35.356Z,0.00
2023-01-06T03:15:35.332Z,0.00
2023-01-06T03:20:35.243Z,0.00
2023-01-06T03:25:35.181Z,0.00
2023-01-06T03:30:35.113Z,0.00
2023-01-06T03:35:35.042Z,0.00
2023-01-06T03:40:34.972Z,0.00
2023-01-06T03:45:34.902Z,0.00
2023-01-06T03:50:34.810Z,0.00
2023-01-06T03:55:34.764Z,0.00
2023-01-06T04:00:34.757Z,0.00
2023-01-06T04:05:34.627Z,0.00
2023-01-06T04:10:34.557Z,0.00
2023-01-06T04:15:34.497Z,0.00
2023-01-06T04:20:34.411Z,0.00
2023-01-06T04:25:34.348Z,0.00
2023-01-06T04:30:34.264Z,0.00
2023-01-06T04:35:34.253Z,0.00
2023-01-06T04:40:34.149Z,0.00
2023-01-06T04:45:34.118Z,0.00
2023-01-06T04:50:34.016Z,0.00
2023-01-06T04:55:34.004Z,0.00
2023-01-06T05:00:33.879Z,0.00
2023-01-06T05:05:33.843Z,0.00
2023-01-06T05:10:33.733Z,0.00
2023-01-06T05:15:48.285Z,0.00
2023-01-06T05:20:40.701Z,0.00
2023-01-06T05:25:40.600Z,0.00
2023-01-06T05:30:40.555Z,0.00
2023-01-06T05:35:40.473Z,0.00
2023-01-06T05:40:40.424Z,0.00
2023-01-06T05:45:40.421Z,0.00
2023-01-06T05:50:40.294Z,0.00
2023-01-06T05:55:40.190Z,0.00
2023-01-06T06:00:40.163Z,0.00
2023-01-06T06:05:40.094Z,0.00
2023-01-06T06:10:39.998Z,0.00
2023-01-06T06:15:39.937Z,0.00
2023-01-06T06:20:39.885Z,0.00
2023-01-06T06:25:39.779Z,0.00
2023-01-06T06:30:39.754Z,0.00
2023-01-06T06:35:39.657Z,0.00
2023-01-06T06:40:39.580Z,0.00
2023-01-06T06:45:39.584Z,0.00
2023-01-06T06:50:39.469Z,0.00
2023-01-06T06:55:39.408Z,0.00
2023-01-06T07:00:39.308Z,0.00
2023-01-06T07:05:39.255Z,0.00
2023-01-06T07:10:39.195Z,0.00
2023-01-06T07:15:39.237Z,4.00
2023-01-06T07:20:39.073Z,8.00
2023-01-06T07:25:38.977Z,12.00
2023-01-06T07:30:38.913Z,16.00
2023-01-06T07:35:38.844Z,28.00
2023-01-06T07:40:38.829Z,32.00
2023-01-06T07:45:38.718Z,44.00
2023-01-06T07:50:38.649Z,56.00
2023-01-06T07:55:38.629Z,80.00
2023-01-06T08:00:38.515Z,108.00
2023-01-06T08:05:38.448Z,116.00
2023-01-06T08:10:38.386Z,116.00
2023-01-06T08:15:38.409Z,148.00
2023-01-06T08:20:38.264Z,176.00
2023-01-06T08:25:38.284Z,188.00
2023-01-06T08:30:38.103Z,220.00
2023-01-06T08:35:38.045Z,240.00
2023-01-06T08:40:37.970Z,404.00
2023-01-06T08:45:37.900Z,428.00
2023-01-06T08:50:37.858Z,804.00
2023-01-06T08:55:37.798Z,1052.00
2023-01-06T09:00:37.708Z,1508.00
2023-01-06T09:05:37.621Z,1764.00
2023-01-06T09:10:37.570Z,2420.00
2023-01-06T09:15:37.497Z,2572.00
2023-01-06T09:20:37.541Z,1872.00
2023-01-06T09:25:37.373Z,1796.00
2023-01-06T09:30:37.314Z,1732.00
2023-01-06T09:35:37.287Z,1412.00
2023-01-06T09:40:37.180Z,1372.00
2023-01-06T09:45:37.103Z,880.00
2023-01-06T09:50:37.048Z,764.00
2023-01-06T09:55:36.947Z,1448.00
2023-01-06T10:00:36.907Z,1480.00
2023-01-06T10:05:36.812Z,1084.00
2023-01-06T10:10:36.768Z,616.00
2023-01-06T10:15:36.720Z,660.00
2023-01-06T10:20:36.660Z,792.00
2023-01-06T10:25:36.528Z,908.00
2023-01-06T10:30:40.252Z,1056.00
2023-01-06T10:35:36.417Z,1776.00
2023-01-06T10:40:36.389Z,4492.00
2023-01-06T10:45:36.279Z,4592.00
2023-01-06T10:50:36.233Z,8132.00
2023-01-06T10:55:36.159Z,4500.00
2023-01-06T11:00:36.083Z,5596.00
2023-01-06T11:05:36.019Z,20832.00
2023-01-06T11:10:35.984Z,6452.00
2023-01-06T11:15:35.910Z,3968.00
2023-01-06T11:20:35.826Z,2720.00
2023-01-06T11:25:35.736Z,9332.00
2023-01-06T11:30:35.670Z,18400.00
2023-01-06T11:35:35.596Z,7148.00
2023-01-06T11:40:35.565Z,18208.00
2023-01-06T11:45:35.526Z,9936.00
2023-01-06T11:50:35.440Z,9056.00
2023-01-06T11:55:35.330Z,6656.00
2023-01-06T12:00:35.280Z,5808.00
2023-01-06T12:05:35.220Z,5556.00
2023-01-06T12:10:35.164Z,4784.00
2023-01-06T12:15:35.060Z,5372.00
2023-01-06T12:20:35.015Z,5568.00
2023-01-06T12:25:34.942Z,4344.00
2023-01-06T12:30:34.927Z,5084.00
2023-01-06T12:35:34.821Z,3668.00
2023-01-06T12:40:34.750Z,2836.00
2023-01-06T12:45:35.201Z,3516.00
2023-01-06T12:50:34.663Z,3220.00
2023-01-06T12:55:34.523Z,2500.00
2023-01-06T13:00:34.478Z,1952.00
2023-01-06T13:05:34.389Z,1932.00
2023-01-06T13:10:34.338Z,1964.00
2023-01-06T13:15:34.295Z,2124.00
2023-01-06T13:20:34.194Z,1604.00
2023-01-06T13:25:34.191Z,1376.00
2023-01-06T13:30:34.258Z,2812.00
2023-01-06T13:35:33.977Z,1852.00
2023-01-06T13:40:33.907Z,1484.00
2023-01-06T13:45:33.862Z,1428.00
2023-01-06T13:50:33.787Z,984.00
2023-01-06T13:55:33.738Z,900.00
2023-01-06T14:00:33.645Z,892.00
2023-01-06T14:05:33.557Z,1448.00
2023-01-06T14:10:33.518Z,1208.00
2023-01-06T14:15:33.480Z,1172.00
2023-01-06T14:20:33.628Z,908.00
2023-01-06T14:25:33.299Z,868.00
2023-01-06T14:30:33.315Z,724.00
2023-01-06T14:35:33.165Z,760.00
2023-01-06T14:40:33.136Z,804.00
2023-01-06T14:45:33.058Z,764.00
2023-01-06T14:50:46.046Z,616.00
2023-01-06T14:55:33.890Z,508.00
2023-01-06T15:00:32.850Z,356.00
2023-01-06T15:05:32.783Z,408.00
2023-01-06T15:10:32.711Z,340.00
2023-01-06T15:15:32.708Z,224.00
2023-01-06T15:20:32.568Z,176.00
2023-01-06T15:25:32.526Z,108.00
2023-01-06T15:30:32.434Z,76.00
2023-01-06T15:35:32.432Z,60.00
2023-01-06T15:40:32.312Z,24.00
2023-01-06T15:45:32.248Z,24.00
2023-01-06T15:50:32.153Z,12.00
2023-01-06T15:55:32.116Z,8.00
2023-01-06T16:00:32.015Z,4.00
2023-01-06T16:05:31.987Z,0.00
2023-01-06T16:10:31.926Z,0.00
2023-01-06T16:15:31.852Z,0.00
2023-01-06T16:20:31.767Z,0.00
2023-01-06T16:25:31.733Z,0.00
2023-01-06T16:30:31.660Z,0.00
2023-01-06T16:35:31.613Z,0.00
2023-01-06T16:40:31.513Z,0.00
2023-01-06T16:45:31.474Z,0.00
2023-01-06T16:50:31.371Z,0.00
2023-01-06T16:55:31.326Z,0.00
2023-01-06T17:00:31.213Z,0.00
2023-01-06T17:05:31.166Z,0.00
2023-01-06T17:10:31.085Z,0.00
2023-01-06T17:15:31.044Z,0.00
2023-01-06T17:20:31.055Z,0.00
2023-01-06T17:25:30.904Z,0.00
2023-01-06T17:30:30.816Z,0.00
2023-01-06T17:35:31.558Z,0.00
2023-01-06T17:40:30.709Z,0.00
2023-01-06T17:45:30.644Z,0.00
2023-01-06T17:50:30.565Z,0.00
2023-01-06T17:55:30.497Z,0.00
2023-01-06T18:00:30.457Z,0.00
2023-01-06T18:05:30.398Z,0.00
2023-01-06T18:10:30.296Z,0.00
2023-01-06T18:15:30.214Z,0.00
2023-01-06T18:20:30.131Z,0.00
2023-01-06T18:25:30.090Z,0.00
2023-01-06T18:30:30.003Z,0.00
2023-01-06T18:35:29.948Z,0.00
2023-01-06T18:40:29.854Z,0.00
2023-01-06T18:45:29.909Z,0.00
2023-01-06T18:50:29.741Z,0.00
2023-01-06T18:55:29.724Z,0.00
2023-01-06T19:00:29.598Z,0.00
2023-01-06T19:05:29.537Z,0.00
2023-01-06T19:10:29.463Z,0.00
2023-01-06T19:15:29.395Z,0.00
2023-01-06T19:20:29.401Z,0.00
2023-01-06T19:25:29.320Z,0.00
2023-01-06T19:30:29.218Z,0.00
2023-01-06T19:35:29.152Z,0.00
2023-01-06T19:40:29.026Z,0.00
2023-01-06T19:45:29.024Z,0.00
2023-01-06T19:50:28.917Z,0.00
2023-01-06T19:55:28.873Z,0.00
2023-01-06T20:00:28.909Z,0.00
2023-01-06T20:05:28.750Z,0.00
2023-01-06T20:10:28.679Z,0.00
2023-01-06T20:15:28.963Z,0.00
2023-01-06T20:20:28.532Z,0.00
2023-01-06T20:25:28.480Z,0.00
2023-01-06T20:30:28.398Z,0.00
2023-01-06T20:35:28.322Z,0.00
2023-01-06T20:40:28.245Z,0.00
2023-01-06T20:45:28.207Z,0.00
2023-01-06T20:50:28.111Z,0.00
2023-01-06T20:55:28.076Z,0.00
2023-01-06T21:00:27.976Z,0.00
2023-01-06T21:05:28.019Z,0.00
2023-01-06T21:10:27.829Z,0.00
2023-01-06T21:15:27.864Z,0.00
2023-01-06T21:20:27.712Z,0.00
2023-01-06T21:25:27.685Z,0.00
2023-01-06T21:30:27.606Z,0.00
2023-01-06T21:35:27.519Z,0.00
2023-01-06T21:40:27.448Z,0.00
2023-01-06T21:45:27.386Z,0.00
2023-01-06T21:50:27.322Z,0.00
2023-01-06T21:55:27.257Z,0.00
2023-01-06T22:00:27.176Z,0.00
2023-01-06T22:05:27.119Z,0.00
2023-01-06T22:10:27.023Z,0.00
2023-01-06T22:15:26.971Z,0.00
2023-01-06T22:20:26.926Z,0.00
2023-01-06T22:25:26.838Z,0.00
2023-01-06T22:30:26.785Z,0.00
2023-01-06T22:35:26.717Z,0.00
2023-01-06T22:40:26.616Z,0.00
2023-01-06T22:45:26.614Z,0.00
2023-01-06T22:50:26.519Z,0.00
2023-01-06T22:55:26.458Z,0.00
2023-01-06T23:00:26.344Z,0.00
2023-01-06T23:05:26.359Z,0.00
2023-01-06T23:10:26.216Z,0.00
2023-01-06T23:15:26.157Z,0.00
2023-01-06T23:20:26.091Z,0.00
2023-01-06T23:25:26.036Z,0.00
2023-01-06T23:30:25.939Z,0.00
2023-01-06T23:35:25.903Z,0.00
2023-01-06T23:40:25.844Z,0.00
2023-01-06T23:45:25.761Z,0.00
2023-01-06T23:50:25.656Z,0.00
2023-01-06T23:55:25.648Z,0.00
